PWSweather.com
Personal Weather Stations
Station Observations
SHAHALMS1
Eftra, Falkenberg, HA

EftraFalkenberg, HA

Lat: 56.85, Lon: 12.65

Elevation: 140

Station Type:

http://hem.passagen.se/risarp101

High Low Average
Temperature 80.6°F27.0°C 59.5°F15.3°C 70.9°F21.6°C
Dew Point 66.1°F18.9°C 54.5°F12.5°C 59.3°F15.2°C
Winds 8.8 mph 14.2 kmh Calm Calm 4.0 mph SE6.4 kmh SE
Wind Gusts 20.8 mph33.5 kmh -- 11.0 mph17.7 kmh
Humidity 90% 49% 68%
Pressure 29.98 in1015.2 mb 29.80 in1009.1 mb -
Precipitation 0.00 in0.0 mm - -
Hour Temp Dew Point Humidity Winds Wind Gusts Pressure Precip Precip Rate Daily Precip Total
12:00 AM 65.5°F18.6°C 57.0°F13.9°C 74% 2.7 mph SSE4.3 kmh SSE 7.9 mph12.7 kmh 29.98 in1015.2 mb 0.00 in0.0 mm 0.00 in0.0 mm 0.00 in0.0 mm
12:10 AM 65.5°F18.6°C 57.0°F13.9°C 74% 2.3 mph SSE3.7 kmh SSE 11.5 mph18.5 kmh 29.98 in1015.2 mb 0.00 in0.0 mm 0.00 in0.0 mm 0.00 in0.0 mm
12:20 AM 65.3°F18.5°C 56.8°F13.8°C 74% 1.2 mph SE1.9 kmh SE 6.4 mph10.3 kmh 29.98 in1015.2 mb 0.00 in0.0 mm 0.00 in0.0 mm 0.00 in0.0 mm
12:30 AM 64.8°F18.2°C 56.6°F13.7°C 75% 2.1 mph ESE3.4 kmh ESE 7.5 mph12.1 kmh 29.95 in1014.2 mb 0.00 in0.0 mm 0.00 in0.0 mm 0.00 in0.0 mm
12:40 AM 64.6°F18.1°C 56.5°F13.6°C 75% 1.9 mph SE3.1 kmh SE 6.1 mph9.8 kmh 29.95 in1014.2 mb 0.00 in0.0 mm 0.00 in0.0 mm 0.00 in0.0 mm
12:50 AM 64.4°F18.0°C 56.7°F13.7°C 76% 3.2 mph SSE5.1 kmh SSE 12.2 mph19.6 kmh 29.95 in1014.2 mb 0.00 in0.0 mm 0.00 in0.0 mm 0.00 in0.0 mm
01:00 AM 64.2°F17.9°C 56.9°F13.8°C 77% 4.1 mph SE6.6 kmh SE 9.7 mph15.6 kmh 29.95 in1014.2 mb 0.00 in0.0 mm 0.00 in0.0 mm 0.00 in0.0 mm
01:10 AM 64.0°F17.8°C 57.0°F13.9°C 78% 5.5 mph SE8.9 kmh SE 12.9 mph20.8 kmh 29.95 in1014.2 mb 0.00 in0.0 mm 0.00 in0.0 mm 0.00 in0.0 mm
01:20 AM 63.9°F17.7°C 56.5°F13.6°C 77% 2.1 mph SE3.4 kmh SE 9.3 mph15.0 kmh 29.95 in1014.2 mb 0.00 in0.0 mm 0.00 in0.0 mm 0.00 in0.0 mm
01:30 AM 63.5°F17.5°C 56.5°F13.6°C 78% 2.1 mph SE3.4 kmh SE 6.8 mph10.9 kmh 29.92 in1013.2 mb 0.00 in0.0 mm 0.00 in0.0 mm 0.00 in0.0 mm
01:40 AM 63.1°F17.3°C 56.5°F13.6°C 79% 3.5 mph SSE5.6 kmh SSE 9.7 mph15.6 kmh 29.92 in1013.2 mb 0.00 in0.0 mm 0.00 in0.0 mm 0.00 in0.0 mm
01:50 AM 63.5°F17.5°C 56.9°F13.8°C 79% 3.0 mph SSE4.8 kmh SSE 11.8 mph19.0 kmh 29.95 in1014.2 mb 0.00 in0.0 mm 0.00 in0.0 mm 0.00 in0.0 mm
02:00 AM 63.3°F17.4°C 56.7°F13.7°C 79% 3.3 mph SE5.3 kmh SE 8.9 mph14.3 kmh 29.92 in1013.2 mb 0.00 in0.0 mm 0.00 in0.0 mm 0.00 in0.0 mm
02:10 AM 63.3°F17.4°C 57.0°F13.9°C 80% 3.7 mph SE6.0 kmh SE 11.5 mph18.5 kmh 29.92 in1013.2 mb 0.00 in0.0 mm 0.00 in0.0 mm 0.00 in0.0 mm
02:20 AM 63.0°F17.2°C 56.7°F13.7°C 80% 2.1 mph SE3.4 kmh SE 8.6 mph13.8 kmh 29.95 in1014.2 mb 0.00 in0.0 mm 0.00 in0.0 mm 0.00 in0.0 mm
02:30 AM 62.8°F17.1°C 56.5°F13.6°C 80% 3.5 mph SE5.6 kmh SE 10.0 mph16.1 kmh 29.95 in1014.2 mb 0.00 in0.0 mm 0.00 in0.0 mm 0.00 in0.0 mm
02:40 AM 62.6°F17.0°C 56.7°F13.7°C 81% 4.2 mph SE6.8 kmh SE 12.2 mph19.6 kmh 29.95 in1014.2 mb 0.00 in0.0 mm 0.00 in0.0 mm 0.00 in0.0 mm
02:50 AM 62.4°F16.9°C 57.2°F14.0°C 83% 3.9 mph SE6.3 kmh SE 8.6 mph13.8 kmh 29.95 in1014.2 mb 0.00 in0.0 mm 0.00 in0.0 mm 0.00 in0.0 mm
03:00 AM 62.2°F16.8°C 57.0°F13.9°C 83% 3.2 mph SSE5.1 kmh SSE 8.6 mph13.8 kmh 29.95 in1014.2 mb 0.00 in0.0 mm 0.00 in0.0 mm 0.00 in0.0 mm
03:10 AM 62.2°F16.8°C 57.3°F14.1°C 84% 4.7 mph SSE7.6 kmh SSE 11.5 mph18.5 kmh 29.95 in1014.2 mb 0.00 in0.0 mm 0.00 in0.0 mm 0.00 in0.0 mm
03:20 AM 62.2°F16.8°C 57.7°F14.3°C 85% 4.3 mph SSE6.9 kmh SSE 11.5 mph18.5 kmh 29.95 in1014.2 mb 0.00 in0.0 mm 0.00 in0.0 mm 0.00 in0.0 mm
03:30 AM 62.1°F16.7°C 57.5°F14.2°C 85% 4.6 mph SSE7.4 kmh SSE 10.7 mph17.2 kmh 29.95 in1014.2 mb 0.00 in0.0 mm 0.00 in0.0 mm 0.00 in0.0 mm
03:40 AM 62.1°F16.7°C 57.8°F14.3°C 86% 4.2 mph SSE6.8 kmh SSE 14.0 mph22.5 kmh 29.95 in1014.2 mb 0.00 in0.0 mm 0.00 in0.0 mm 0.00 in0.0 mm
03:50 AM 62.1°F16.7°C 57.5°F14.2°C 85% 3.6 mph SSE5.8 kmh SSE 12.2 mph19.6 kmh 29.95 in1014.2 mb 0.00 in0.0 mm 0.00 in0.0 mm 0.00 in0.0 mm
04:00 AM 61.7°F16.5°C 57.1°F13.9°C 85% 1.0 mph SE1.6 kmh SE 6.8 mph10.9 kmh 29.95 in1014.2 mb 0.00 in0.0 mm 0.00 in0.0 mm 0.00 in0.0 mm
04:10 AM 61.3°F16.3°C 56.5°F13.6°C 84% Calm Calm -- 29.95 in1014.2 mb 0.00 in0.0 mm 0.00 in0.0 mm 0.00 in0.0 mm
04:20 AM 60.8°F16.0°C 55.9°F13.3°C 84% 0.4 mph ESE0.6 kmh ESE 7.2 mph11.6 kmh 29.92 in1013.2 mb 0.00 in0.0 mm 0.00 in0.0 mm 0.00 in0.0 mm
04:30 AM 60.1°F15.6°C 55.2°F12.9°C 84% 3.0 mph SE4.8 kmh SE 7.9 mph12.7 kmh 29.92 in1013.2 mb 0.00 in0.0 mm 0.00 in0.0 mm 0.00 in0.0 mm
04:40 AM 59.7°F15.4°C 55.2°F12.9°C 85% 0.2 mph SE0.3 kmh SE 4.3 mph6.9 kmh 29.92 in1013.2 mb 0.00 in0.0 mm 0.00 in0.0 mm 0.00 in0.0 mm
04:50 AM 59.5°F15.3°C 55.3°F12.9°C 86% 0.9 mph ESE1.4 kmh ESE 6.1 mph9.8 kmh 29.92 in1013.2 mb 0.00 in0.0 mm 0.00 in0.0 mm 0.00 in0.0 mm
05:00 AM 60.1°F15.6°C 56.5°F13.6°C 88% 1.9 mph ESE3.1 kmh ESE 7.5 mph12.1 kmh 29.92 in1013.2 mb 0.00 in0.0 mm 0.00 in0.0 mm 0.00 in0.0 mm
05:10 AM 60.8°F16.0°C 57.5°F14.2°C 89% 1.8 mph E2.9 kmh E 6.4 mph10.3 kmh 29.92 in1013.2 mb 0.00 in0.0 mm 0.00 in0.0 mm 0.00 in0.0 mm
05:20 AM 61.2°F16.2°C 57.9°F14.4°C 89% 2.1 mph E3.4 kmh E 6.1 mph9.8 kmh 29.95 in1014.2 mb 0.00 in0.0 mm 0.00 in0.0 mm 0.00 in0.0 mm
05:30 AM 61.7°F16.5°C 58.7°F14.8°C 90% 5.3 mph E8.5 kmh E 12.2 mph19.6 kmh 29.95 in1014.2 mb 0.00 in0.0 mm 0.00 in0.0 mm 0.00 in0.0 mm
05:40 AM 62.1°F16.7°C 59.1°F15.1°C 90% 6.6 mph E10.6 kmh E 10.4 mph16.7 kmh 29.95 in1014.2 mb 0.00 in0.0 mm 0.00 in0.0 mm 0.00 in0.0 mm
05:50 AM 62.6°F17.0°C 59.3°F15.2°C 89% 5.3 mph ESE8.5 kmh ESE 11.8 mph19.0 kmh 29.92 in1013.2 mb 0.00 in0.0 mm 0.00 in0.0 mm 0.00 in0.0 mm
06:00 AM 63.0°F17.2°C 59.7°F15.4°C 89% 7.0 mph ESE11.3 kmh ESE 14.0 mph22.5 kmh 29.92 in1013.2 mb 0.00 in0.0 mm 0.00 in0.0 mm 0.00 in0.0 mm
06:10 AM 63.7°F17.6°C 60.1°F15.6°C 88% 7.4 mph ESE11.9 kmh ESE 14.0 mph22.5 kmh 29.92 in1013.2 mb 0.00 in0.0 mm 0.00 in0.0 mm 0.00 in0.0 mm
06:20 AM 64.4°F18.0°C 60.4°F15.8°C 87% 5.7 mph E9.2 kmh E 13.6 mph21.9 kmh 29.92 in1013.2 mb 0.00 in0.0 mm 0.00 in0.0 mm 0.00 in0.0 mm
06:30 AM 65.3°F18.5°C 61.3°F16.3°C 87% 5.8 mph E9.3 kmh E 11.8 mph19.0 kmh 29.92 in1013.2 mb 0.00 in0.0 mm 0.00 in0.0 mm 0.00 in0.0 mm
06:40 AM 65.8°F18.8°C 60.9°F16.1°C 84% 6.9 mph ESE11.1 kmh ESE 14.0 mph22.5 kmh 29.92 in1013.2 mb 0.00 in0.0 mm 0.00 in0.0 mm 0.00 in0.0 mm
06:50 AM 65.8°F18.8°C 60.5°F15.8°C 83% 6.0 mph ESE9.7 kmh ESE 14.0 mph22.5 kmh 29.92 in1013.2 mb 0.00 in0.0 mm 0.00 in0.0 mm 0.00 in0.0 mm
07:00 AM 65.8°F18.8°C 60.5°F15.8°C 83% 4.3 mph ESE6.9 kmh ESE 12.2 mph19.6 kmh 29.92 in1013.2 mb 0.00 in0.0 mm 0.00 in0.0 mm 0.00 in0.0 mm
07:10 AM 66.2°F19.0°C 60.9°F16.1°C 83% 3.0 mph ESE4.8 kmh ESE 10.0 mph16.1 kmh 29.92 in1013.2 mb 0.00 in0.0 mm 0.00 in0.0 mm 0.00 in0.0 mm
07:20 AM 66.6°F19.2°C 61.2°F16.2°C 83% 0.5 mph E0.8 kmh E 7.9 mph12.7 kmh 29.92 in1013.2 mb 0.00 in0.0 mm 0.00 in0.0 mm 0.00 in0.0 mm
07:30 AM 67.3°F19.6°C 61.9°F16.6°C 83% 2.5 mph E4.0 kmh E 7.9 mph12.7 kmh 29.92 in1013.2 mb 0.00 in0.0 mm 0.00 in0.0 mm 0.00 in0.0 mm
07:40 AM 68.4°F20.2°C 63.0°F17.2°C 83% 3.9 mph ESE6.3 kmh ESE 10.4 mph16.7 kmh 29.92 in1013.2 mb 0.00 in0.0 mm 0.00 in0.0 mm 0.00 in0.0 mm
07:50 AM 69.1°F20.6°C 63.4°F17.4°C 82% 3.9 mph ESE6.3 kmh ESE 10.0 mph16.1 kmh 29.92 in1013.2 mb 0.00 in0.0 mm 0.00 in0.0 mm 0.00 in0.0 mm
08:00 AM 69.6°F20.9°C 63.2°F17.3°C 80% 3.2 mph ESE5.1 kmh ESE 9.3 mph15.0 kmh 29.92 in1013.2 mb 0.00 in0.0 mm 0.00 in0.0 mm 0.00 in0.0 mm
08:10 AM 69.3°F20.7°C 62.1°F16.7°C 78% 2.8 mph ESE4.5 kmh ESE 8.6 mph13.8 kmh 29.92 in1013.2 mb 0.00 in0.0 mm 0.00 in0.0 mm 0.00 in0.0 mm
08:20 AM 71.1°F21.7°C 64.6°F18.1°C 80% 2.1 mph E3.4 kmh E 6.8 mph10.9 kmh 29.92 in1013.2 mb 0.00 in0.0 mm 0.00 in0.0 mm 0.00 in0.0 mm
08:30 AM 73.8°F23.2°C 66.1°F18.9°C 77% 4.2 mph ESE6.8 kmh ESE 11.1 mph17.9 kmh 29.92 in1013.2 mb 0.00 in0.0 mm 0.00 in0.0 mm 0.00 in0.0 mm
08:40 AM 75.7°F24.3°C 65.7°F18.7°C 71% 4.2 mph ESE6.8 kmh ESE 12.2 mph19.6 kmh 29.92 in1013.2 mb 0.00 in0.0 mm 0.00 in0.0 mm 0.00 in0.0 mm
08:50 AM 76.3°F24.6°C 64.9°F18.3°C 68% 3.6 mph E5.8 kmh E 9.7 mph15.6 kmh 29.92 in1013.2 mb 0.00 in0.0 mm 0.00 in0.0 mm 0.00 in0.0 mm
09:00 AM 76.6°F24.8°C 64.4°F18.0°C 66% 3.2 mph ESE5.1 kmh ESE 8.6 mph13.8 kmh 29.92 in1013.2 mb 0.00 in0.0 mm 0.00 in0.0 mm 0.00 in0.0 mm
09:10 AM 77.0°F25.0°C 63.9°F17.7°C 64% 3.1 mph ESE5.0 kmh ESE 10.0 mph16.1 kmh 29.92 in1013.2 mb 0.00 in0.0 mm 0.00 in0.0 mm 0.00 in0.0 mm
09:20 AM 77.2°F25.1°C 62.2°F16.8°C 60% 5.6 mph ESE9.0 kmh ESE 10.4 mph16.7 kmh 29.92 in1013.2 mb 0.00 in0.0 mm 0.00 in0.0 mm 0.00 in0.0 mm
09:30 AM 77.2°F25.1°C 61.7°F16.5°C 59% 3.4 mph E5.5 kmh E 9.7 mph15.6 kmh 29.92 in1013.2 mb 0.00 in0.0 mm 0.00 in0.0 mm 0.00 in0.0 mm
09:40 AM 77.7°F25.4°C 63.2°F17.3°C 61% 5.0 mph ESE8.0 kmh ESE 11.5 mph18.5 kmh 29.92 in1013.2 mb 0.00 in0.0 mm 0.00 in0.0 mm 0.00 in0.0 mm
09:50 AM 77.9°F25.5°C 62.4°F16.9°C 59% 3.0 mph ESE4.8 kmh ESE 9.7 mph15.6 kmh 29.89 in1012.2 mb 0.00 in0.0 mm 0.00 in0.0 mm 0.00 in0.0 mm
10:00 AM 77.7°F25.4°C 60.3°F15.7°C 55% 4.4 mph S7.1 kmh S 10.4 mph16.7 kmh 29.89 in1012.2 mb 0.00 in0.0 mm 0.00 in0.0 mm 0.00 in0.0 mm
10:10 AM 77.5°F25.3°C 60.6°F15.9°C 56% 4.9 mph S7.9 kmh S 17.5 mph28.2 kmh 29.89 in1012.2 mb 0.00 in0.0 mm 0.00 in0.0 mm 0.00 in0.0 mm
10:20 AM 77.5°F25.3°C 60.6°F15.9°C 56% 3.9 mph S6.3 kmh S 9.3 mph15.0 kmh 29.89 in1012.2 mb 0.00 in0.0 mm 0.00 in0.0 mm 0.00 in0.0 mm
10:30 AM 77.4°F25.2°C 61.4°F16.3°C 58% 5.9 mph SW9.5 kmh SW 16.8 mph27.0 kmh 29.92 in1013.2 mb 0.00 in0.0 mm 0.00 in0.0 mm 0.00 in0.0 mm
10:40 AM 76.1°F24.5°C 59.8°F15.4°C 57% 8.2 mph SSW13.2 kmh SSW 19.7 mph31.7 kmh 29.92 in1013.2 mb 0.00 in0.0 mm 0.00 in0.0 mm 0.00 in0.0 mm
10:50 AM 75.4°F24.1°C 59.1°F15.1°C 57% 7.1 mph SSW11.4 kmh SSW 16.8 mph27.0 kmh 29.92 in1013.2 mb 0.00 in0.0 mm 0.00 in0.0 mm 0.00 in0.0 mm
11:00 AM 73.9°F23.3°C 58.2°F14.6°C 58% 6.3 mph S10.1 kmh S 13.6 mph21.9 kmh 29.92 in1013.2 mb 0.00 in0.0 mm 0.00 in0.0 mm 0.00 in0.0 mm
11:10 AM 72.1°F22.3°C 58.8°F14.9°C 63% 6.8 mph ESE10.9 kmh ESE 15.4 mph24.8 kmh 29.92 in1013.2 mb 0.00 in0.0 mm 0.00 in0.0 mm 0.00 in0.0 mm
11:20 AM 70.0°F21.1°C 59.7°F15.4°C 70% 8.8 mph ESE14.2 kmh ESE 14.3 mph23.0 kmh 29.89 in1012.2 mb 0.00 in0.0 mm 0.00 in0.0 mm 0.00 in0.0 mm
11:30 AM 69.4°F20.8°C 61.5°F16.4°C 76% 5.0 mph E8.0 kmh E 13.6 mph21.9 kmh 29.89 in1012.2 mb 0.00 in0.0 mm 0.00 in0.0 mm 0.00 in0.0 mm
11:40 AM 69.4°F20.8°C 62.3°F16.8°C 78% 4.8 mph E7.7 kmh E 10.4 mph16.7 kmh 29.89 in1012.2 mb 0.00 in0.0 mm 0.00 in0.0 mm 0.00 in0.0 mm
11:50 AM 70.2°F21.2°C 63.7°F17.6°C 80% 6.2 mph E10.0 kmh E 11.5 mph18.5 kmh 29.89 in1012.2 mb 0.00 in0.0 mm 0.00 in0.0 mm 0.00 in0.0 mm
12:00 PM 72.0°F22.2°C 65.1°F18.4°C 79% 4.8 mph E7.7 kmh E 12.2 mph19.6 kmh 29.89 in1012.2 mb 0.00 in0.0 mm 0.00 in0.0 mm 0.00 in0.0 mm
12:10 PM 73.0°F22.8°C 65.0°F18.3°C 76% 3.6 mph ESE5.8 kmh ESE 8.6 mph13.8 kmh 29.89 in1012.2 mb 0.00 in0.0 mm 0.00 in0.0 mm 0.00 in0.0 mm
12:20 PM 74.3°F23.5°C 64.3°F17.9°C 71% 4.0 mph E6.4 kmh E 10.4 mph16.7 kmh 29.89 in1012.2 mb 0.00 in0.0 mm 0.00 in0.0 mm 0.00 in0.0 mm
12:30 PM 75.0°F23.9°C 64.6°F18.1°C 70% 5.0 mph E8.0 kmh E 10.4 mph16.7 kmh 29.86 in1011.2 mb 0.00 in0.0 mm 0.00 in0.0 mm 0.00 in0.0 mm
12:40 PM 75.0°F23.9°C 64.6°F18.1°C 70% 4.7 mph ESE7.6 kmh ESE 12.2 mph19.6 kmh 29.86 in1011.2 mb 0.00 in0.0 mm 0.00 in0.0 mm 0.00 in0.0 mm
12:50 PM 75.2°F24.0°C 63.5°F17.5°C 67% 6.0 mph E9.7 kmh E 14.3 mph23.0 kmh 29.89 in1012.2 mb 0.00 in0.0 mm 0.00 in0.0 mm 0.00 in0.0 mm
01:00 PM 75.2°F24.0°C 62.6°F17.0°C 65% 4.3 mph E6.9 kmh E 11.8 mph19.0 kmh 29.92 in1013.2 mb 0.00 in0.0 mm 0.00 in0.0 mm 0.00 in0.0 mm
01:10 PM 75.7°F24.3°C 64.4°F18.0°C 68% 3.6 mph E5.8 kmh E 10.4 mph16.7 kmh 29.92 in1013.2 mb 0.00 in0.0 mm 0.00 in0.0 mm 0.00 in0.0 mm
01:20 PM 75.9°F24.4°C 63.7°F17.6°C 66% 2.7 mph E4.3 kmh E 12.2 mph19.6 kmh 29.89 in1012.2 mb 0.00 in0.0 mm 0.00 in0.0 mm 0.00 in0.0 mm
01:30 PM 76.5°F24.7°C 64.3°F17.9°C 66% 3.3 mph ESE5.3 kmh ESE 7.9 mph12.7 kmh 29.92 in1013.2 mb 0.00 in0.0 mm 0.00 in0.0 mm 0.00 in0.0 mm
01:40 PM 77.2°F25.1°C 63.6°F17.6°C 63% 3.2 mph ESE5.1 kmh ESE 10.4 mph16.7 kmh 29.92 in1013.2 mb 0.00 in0.0 mm 0.00 in0.0 mm 0.00 in0.0 mm
01:50 PM 77.2°F25.1°C 63.6°F17.6°C 63% 1.6 mph E2.6 kmh E 7.5 mph12.1 kmh 29.89 in1012.2 mb 0.00 in0.0 mm 0.00 in0.0 mm 0.00 in0.0 mm
02:00 PM 77.7°F25.4°C 63.7°F17.6°C 62% 1.4 mph ESE2.3 kmh ESE 6.1 mph9.8 kmh 29.89 in1012.2 mb 0.00 in0.0 mm 0.00 in0.0 mm 0.00 in0.0 mm
02:10 PM 78.3°F25.7°C 63.2°F17.3°C 60% 2.3 mph S3.7 kmh S 8.6 mph13.8 kmh 29.89 in1012.2 mb 0.00 in0.0 mm 0.00 in0.0 mm 0.00 in0.0 mm
02:20 PM 78.8°F26.0°C 62.8°F17.1°C 58% 3.2 mph S5.1 kmh S 10.4 mph16.7 kmh 29.86 in1011.2 mb 0.00 in0.0 mm 0.00 in0.0 mm 0.00 in0.0 mm
02:30 PM 79.0°F26.1°C 63.4°F17.4°C 59% 3.6 mph SSE5.8 kmh SSE 10.4 mph16.7 kmh 29.86 in1011.2 mb 0.00 in0.0 mm 0.00 in0.0 mm 0.00 in0.0 mm
02:40 PM 79.3°F26.3°C 63.8°F17.7°C 59% 4.6 mph S7.4 kmh S 11.5 mph18.5 kmh 29.86 in1011.2 mb 0.00 in0.0 mm 0.00 in0.0 mm 0.00 in0.0 mm
02:50 PM 79.7°F26.5°C 64.6°F18.1°C 60% 3.6 mph SW5.8 kmh SW 8.6 mph13.8 kmh 29.86 in1011.2 mb 0.00 in0.0 mm 0.00 in0.0 mm 0.00 in0.0 mm
03:00 PM 80.2°F26.8°C 64.6°F18.1°C 59% 4.8 mph S7.7 kmh S 12.2 mph19.6 kmh 29.86 in1011.2 mb 0.00 in0.0 mm 0.00 in0.0 mm 0.00 in0.0 mm
03:10 PM 80.6°F27.0°C 64.5°F18.1°C 58% 4.8 mph S7.7 kmh S 12.5 mph20.1 kmh 29.86 in1011.2 mb 0.00 in0.0 mm 0.00 in0.0 mm 0.00 in0.0 mm
03:20 PM 80.2°F26.8°C 62.6°F17.0°C 55% 6.9 mph S11.1 kmh S 20.8 mph33.5 kmh 29.86 in1011.2 mb 0.00 in0.0 mm 0.00 in0.0 mm 0.00 in0.0 mm
03:30 PM 79.9°F26.6°C 62.3°F16.8°C 55% 6.8 mph S10.9 kmh S 16.5 mph26.6 kmh 29.83 in1010.2 mb 0.00 in0.0 mm 0.00 in0.0 mm 0.00 in0.0 mm
03:40 PM 80.1°F26.7°C 62.9°F17.2°C 56% 4.4 mph SSE7.1 kmh SSE 15.7 mph25.3 kmh 29.83 in1010.2 mb 0.00 in0.0 mm 0.00 in0.0 mm 0.00 in0.0 mm
03:50 PM 79.9°F26.6°C 60.7°F15.9°C 52% 7.1 mph SSE11.4 kmh SSE 17.5 mph28.2 kmh 29.83 in1010.2 mb 0.00 in0.0 mm 0.00 in0.0 mm 0.00 in0.0 mm
04:00 PM 79.3°F26.3°C 59.6°F15.3°C 51% 8.1 mph S13.0 kmh S 20.8 mph33.5 kmh 29.83 in1010.2 mb 0.00 in0.0 mm 0.00 in0.0 mm 0.00 in0.0 mm
04:10 PM 79.3°F26.3°C 60.2°F15.7°C 52% 6.3 mph S10.1 kmh S 14.0 mph22.5 kmh 29.83 in1010.2 mb 0.00 in0.0 mm 0.00 in0.0 mm 0.00 in0.0 mm
04:20 PM 79.3°F26.3°C 59.6°F15.3°C 51% 7.2 mph S11.6 kmh S 17.2 mph27.7 kmh 29.80 in1009.1 mb 0.00 in0.0 mm 0.00 in0.0 mm 0.00 in0.0 mm
04:30 PM 79.7°F26.5°C 60.0°F15.6°C 51% 4.3 mph S6.9 kmh S 11.8 mph19.0 kmh 29.83 in1010.2 mb 0.00 in0.0 mm 0.00 in0.0 mm 0.00 in0.0 mm
04:40 PM 79.9°F26.6°C 60.1°F15.6°C 51% 5.2 mph S8.4 kmh S 15.4 mph24.8 kmh 29.83 in1010.2 mb 0.00 in0.0 mm 0.00 in0.0 mm 0.00 in0.0 mm
04:50 PM 79.9°F26.6°C 59.6°F15.3°C 50% 6.5 mph S10.5 kmh S 13.6 mph21.9 kmh 29.83 in1010.2 mb 0.00 in0.0 mm 0.00 in0.0 mm 0.00 in0.0 mm
05:00 PM 79.7°F26.5°C 59.4°F15.2°C 50% 6.7 mph S10.8 kmh S 13.6 mph21.9 kmh 29.83 in1010.2 mb 0.00 in0.0 mm 0.00 in0.0 mm 0.00 in0.0 mm
05:10 PM 79.7°F26.5°C 58.8°F14.9°C 49% 5.4 mph S8.7 kmh S 17.5 mph28.2 kmh 29.83 in1010.2 mb 0.00 in0.0 mm 0.00 in0.0 mm 0.00 in0.0 mm
05:20 PM 79.7°F26.5°C 58.8°F14.9°C 49% 4.7 mph S7.6 kmh S 10.4 mph16.7 kmh 29.80 in1009.1 mb 0.00 in0.0 mm 0.00 in0.0 mm 0.00 in0.0 mm
05:30 PM 79.7°F26.5°C 58.8°F14.9°C 49% 5.3 mph S8.5 kmh S 13.6 mph21.9 kmh 29.83 in1010.2 mb 0.00 in0.0 mm 0.00 in0.0 mm 0.00 in0.0 mm
05:40 PM 79.7°F26.5°C 58.8°F14.9°C 49% 5.3 mph S8.5 kmh S 10.4 mph16.7 kmh 29.83 in1010.2 mb 0.00 in0.0 mm 0.00 in0.0 mm 0.00 in0.0 mm
05:50 PM 79.5°F26.4°C 58.7°F14.8°C 49% 5.1 mph S8.2 kmh S 10.0 mph16.1 kmh 29.83 in1010.2 mb 0.00 in0.0 mm 0.00 in0.0 mm 0.00 in0.0 mm
06:00 PM 79.3°F26.3°C 58.5°F14.7°C 49% 4.1 mph S6.6 kmh S 8.6 mph13.8 kmh 29.83 in1010.2 mb 0.00 in0.0 mm 0.00 in0.0 mm 0.00 in0.0 mm
06:10 PM 78.4°F25.8°C 57.7°F14.3°C 49% 2.8 mph S4.5 kmh S 9.3 mph15.0 kmh 29.83 in1010.2 mb 0.00 in0.0 mm 0.00 in0.0 mm 0.00 in0.0 mm
06:20 PM 77.7°F25.4°C 57.6°F14.2°C 50% 4.0 mph S6.4 kmh S 8.6 mph13.8 kmh 29.80 in1009.1 mb 0.00 in0.0 mm 0.00 in0.0 mm 0.00 in0.0 mm
06:30 PM 77.0°F25.0°C 56.4°F13.6°C 49% 3.3 mph S5.3 kmh S 8.6 mph13.8 kmh 29.80 in1009.1 mb 0.00 in0.0 mm 0.00 in0.0 mm 0.00 in0.0 mm
06:40 PM 76.5°F24.7°C 56.4°F13.6°C 50% 2.2 mph S3.5 kmh S 6.8 mph10.9 kmh 29.80 in1009.1 mb 0.00 in0.0 mm 0.00 in0.0 mm 0.00 in0.0 mm
06:50 PM 76.6°F24.8°C 57.2°F14.0°C 51% 1.6 mph SSW2.6 kmh SSW 6.1 mph9.8 kmh 29.80 in1009.1 mb 0.00 in0.0 mm 0.00 in0.0 mm 0.00 in0.0 mm
07:00 PM 77.0°F25.0°C 56.4°F13.6°C 49% 2.2 mph S3.5 kmh S 4.7 mph7.6 kmh 29.80 in1009.1 mb 0.00 in0.0 mm 0.00 in0.0 mm 0.00 in0.0 mm
07:10 PM 76.1°F24.5°C 56.1°F13.4°C 50% 2.8 mph SSE4.5 kmh SSE 10.7 mph17.2 kmh 29.80 in1009.1 mb 0.00 in0.0 mm 0.00 in0.0 mm 0.00 in0.0 mm
07:20 PM 75.4°F24.1°C 55.4°F13.0°C 50% 4.7 mph SSE7.6 kmh SSE 14.7 mph23.7 kmh 29.80 in1009.1 mb 0.00 in0.0 mm 0.00 in0.0 mm 0.00 in0.0 mm
07:30 PM 74.8°F23.8°C 55.5°F13.1°C 51% 1.8 mph SE2.9 kmh SE 10.0 mph16.1 kmh 29.80 in1009.1 mb 0.00 in0.0 mm 0.00 in0.0 mm 0.00 in0.0 mm
07:40 PM 74.3°F23.5°C 55.0°F12.8°C 51% 2.4 mph S3.9 kmh S 7.9 mph12.7 kmh 29.80 in1009.1 mb 0.00 in0.0 mm 0.00 in0.0 mm 0.00 in0.0 mm
07:50 PM 74.1°F23.4°C 54.8°F12.7°C 51% 4.0 mph SSE6.4 kmh SSE 8.6 mph13.8 kmh 29.80 in1009.1 mb 0.00 in0.0 mm 0.00 in0.0 mm 0.00 in0.0 mm
08:00 PM 73.8°F23.2°C 54.5°F12.5°C 51% 5.7 mph SE9.2 kmh SE 12.9 mph20.8 kmh 29.80 in1009.1 mb 0.00 in0.0 mm 0.00 in0.0 mm 0.00 in0.0 mm
08:10 PM 73.0°F22.8°C 54.9°F12.7°C 53% 2.4 mph ESE3.9 kmh ESE 8.9 mph14.3 kmh 29.80 in1009.1 mb 0.00 in0.0 mm 0.00 in0.0 mm 0.00 in0.0 mm
08:20 PM 72.1°F22.3°C 54.6°F12.6°C 54% 2.3 mph ESE3.7 kmh ESE 8.9 mph14.3 kmh 29.80 in1009.1 mb 0.00 in0.0 mm 0.00 in0.0 mm 0.00 in0.0 mm
08:30 PM 71.8°F22.1°C 54.7°F12.6°C 55% 3.3 mph ESE5.3 kmh ESE 9.7 mph15.6 kmh 29.80 in1009.1 mb 0.00 in0.0 mm 0.00 in0.0 mm 0.00 in0.0 mm
08:40 PM 71.1°F21.7°C 56.0°F13.3°C 59% 3.3 mph ESE5.3 kmh ESE 8.6 mph13.8 kmh 29.80 in1009.1 mb 0.00 in0.0 mm 0.00 in0.0 mm 0.00 in0.0 mm
08:50 PM 70.5°F21.4°C 56.0°F13.3°C 60% 2.8 mph ESE4.5 kmh ESE 8.6 mph13.8 kmh 29.80 in1009.1 mb 0.00 in0.0 mm 0.00 in0.0 mm 0.00 in0.0 mm
09:00 PM 70.2°F21.2°C 56.1°F13.4°C 61% 4.5 mph ESE7.2 kmh ESE 9.3 mph15.0 kmh 29.80 in1009.1 mb 0.00 in0.0 mm 0.00 in0.0 mm 0.00 in0.0 mm
09:10 PM 69.8°F21.0°C 55.3°F12.9°C 60% 6.1 mph SE9.8 kmh SE 16.1 mph25.9 kmh 29.80 in1009.1 mb 0.00 in0.0 mm 0.00 in0.0 mm 0.00 in0.0 mm
09:20 PM 69.4°F20.8°C 55.4°F13.0°C 61% 3.7 mph E6.0 kmh E 11.8 mph19.0 kmh 29.80 in1009.1 mb 0.00 in0.0 mm 0.00 in0.0 mm 0.00 in0.0 mm
09:30 PM 69.1°F20.6°C 55.1°F12.8°C 61% 4.7 mph ESE7.6 kmh ESE 12.2 mph19.6 kmh 29.80 in1009.1 mb 0.00 in0.0 mm 0.00 in0.0 mm 0.00 in0.0 mm
09:40 PM 68.9°F20.5°C 55.3°F12.9°C 62% 5.1 mph ESE8.2 kmh ESE 17.5 mph28.2 kmh 29.80 in1009.1 mb 0.00 in0.0 mm 0.00 in0.0 mm 0.00 in0.0 mm
09:50 PM 68.5°F20.3°C 55.0°F12.8°C 62% 4.9 mph E7.9 kmh E 12.2 mph19.6 kmh 29.80 in1009.1 mb 0.00 in0.0 mm 0.00 in0.0 mm 0.00 in0.0 mm
10:00 PM 68.2°F20.1°C 55.1°F12.8°C 63% 4.3 mph E6.9 kmh E 13.6 mph21.9 kmh 29.80 in1009.1 mb 0.00 in0.0 mm 0.00 in0.0 mm 0.00 in0.0 mm
10:10 PM 67.6°F19.8°C 55.5°F13.1°C 65% 5.5 mph E8.9 kmh E 15.0 mph24.1 kmh 29.80 in1009.1 mb 0.00 in0.0 mm 0.00 in0.0 mm 0.00 in0.0 mm
10:20 PM 67.5°F19.7°C 55.7°F13.2°C 66% 6.0 mph ESE9.7 kmh ESE 15.0 mph24.1 kmh 29.80 in1009.1 mb 0.00 in0.0 mm 0.00 in0.0 mm 0.00 in0.0 mm
10:30 PM 66.9°F19.4°C 55.6°F13.1°C 67% 4.6 mph ESE7.4 kmh ESE 11.5 mph18.5 kmh 29.80 in1009.1 mb 0.00 in0.0 mm 0.00 in0.0 mm 0.00 in0.0 mm
10:40 PM 66.7°F19.3°C 55.8°F13.2°C 68% 4.7 mph SE7.6 kmh SE 14.0 mph22.5 kmh 29.80 in1009.1 mb 0.00 in0.0 mm 0.00 in0.0 mm 0.00 in0.0 mm
10:50 PM 66.6°F19.2°C 56.5°F13.6°C 70% 6.4 mph ESE10.3 kmh ESE 14.0 mph22.5 kmh 29.80 in1009.1 mb 0.00 in0.0 mm 0.00 in0.0 mm 0.00 in0.0 mm
11:00 PM 66.4°F19.1°C 56.7°F13.7°C 71% 4.5 mph E7.2 kmh E 14.0 mph22.5 kmh 29.80 in1009.1 mb 0.00 in0.0 mm 0.00 in0.0 mm 0.00 in0.0 mm
11:10 PM 66.4°F19.1°C 57.1°F13.9°C 72% 3.9 mph SE6.3 kmh SE 9.7 mph15.6 kmh 29.80 in1009.1 mb 0.00 in0.0 mm 0.00 in0.0 mm 0.00 in0.0 mm
11:20 PM 66.6°F19.2°C 57.3°F14.1°C 72% 4.4 mph S7.1 kmh S 10.7 mph17.2 kmh 29.80 in1009.1 mb 0.00 in0.0 mm 0.00 in0.0 mm 0.00 in0.0 mm
11:30 PM 67.1°F19.5°C 57.4°F14.1°C 71% 5.5 mph SSE8.9 kmh SSE 16.5 mph26.6 kmh 29.83 in1010.2 mb 0.00 in0.0 mm 0.00 in0.0 mm 0.00 in0.0 mm
11:40 PM 67.5°F19.7°C 58.1°F14.5°C 72% 4.3 mph S6.9 kmh S 19.7 mph31.7 kmh 29.83 in1010.2 mb 0.00 in0.0 mm 0.00 in0.0 mm 0.00 in0.0 mm
11:50 PM 67.6°F19.8°C 58.3°F14.6°C 72% 5.4 mph S8.7 kmh S 14.0 mph22.5 kmh 29.80 in1009.1 mb 0.00 in0.0 mm 0.00 in0.0 mm 0.00 in0.0 mm